NY18 weather

Neno Airport
Ithaca, New York, United States

Public forecast

Using degrees Fahrenheit for public forecast. Weather courtesy of forecast.io.

Closest aviation weather report (METAR) to Neno Airport

Closest report is Ithaca Tompkins Regional Airport, 7.5 nm (13.8 km) ENE. Retrieved 2019/10/18 15:55 UTC (2 hours ago):

KITH 181555Z 32013G17KT 10SM OVC020 06/03 A2995

Closest aviation forecast (TAF) to Neno Airport

Closest forecast is Ithaca Tompkins Regional Airport, 7.5 nm (13.8 km) ENE. Retrieved 2019/10/18 12:45 UTC (5 hours ago):

TAF COR KITH 181141Z 1812/1912 31010G20KT P6SM OVC009 TEMPO 1812/1815 OVC015 FM181500 31009KT P6SM OVC015 FM182000 31008KT P6SM BKN025 FM190100 VRB03KT P6SM SCT080